Time;durP1;ratioP1;P1;durP2;ratioP2;P2;SDS_P1;SDS_P2;PMS_P1;PMS_P2;Temp;Humidity;BMP_temperature;BMP_pressure;BME280_temperature;BME280_humidity;BME280_pressure;Samples;Min_cycle;Max_cycle;Signal;HPM_P1;HPM_P2
2023/03/04 00:01:14;;;;;;;;;;;-0.20;1.00;;;;;;4994991;28;19929;-73
2023/03/04 00:03:40;;;;;;;;;;;-0.30;1.00;;;;;;4995188;28;20275;-78
2023/03/04 00:06:07;;;;;;;;;;;-0.30;1.00;;;;;;4995816;28;19914;-74
2023/03/04 00:08:33;;;;;;;;;;;-0.30;1.00;;;;;;4995487;28;19913;-73
2023/03/04 00:10:59;;;;;;;;;;;-0.40;1.00;;;;;;4994246;28;19906;-73
2023/03/04 00:13:25;;;;;;;;;;;-0.40;1.00;;;;;;4999198;28;19918;-73
2023/03/04 00:15:52;;;;;;;;;;;-0.40;1.00;;;;;;4997009;28;19910;-74
2023/03/04 00:18:19;;;;;;;;;;;-0.50;1.00;;;;;;4999229;28;19924;-73
2023/03/04 00:20:46;;;;;;;;;;;-0.50;1.00;;;;;;4995160;28;19922;-73
2023/03/04 00:23:11;;;;;;;;;;;-0.50;1.00;;;;;;4995389;28;20318;-73
2023/03/04 00:25:37;;;;;;;;;;;-0.50;1.00;;;;;;4981789;28;19913;-76
2023/03/04 00:28:04;;;;;;;;;;;-0.60;1.00;;;;;;4994652;28;20457;-74
2023/03/04 00:30:30;;;;;;;;;;;-0.60;1.00;;;;;;4994168;28;20275;-75
2023/03/04 00:32:56;;;;;;;;;;;-0.70;1.00;;;;;;4994755;28;20037;-75
2023/03/04 00:35:23;;;;;;;;;;;-0.60;1.00;;;;;;4995070;28;19921;-75
2023/03/04 00:37:49;;;;;;;;;;;-0.70;1.00;;;;;;4994167;28;20402;-75
2023/03/04 00:40:15;;;;;;;;;;;-0.70;1.00;;;;;;4993363;28;19914;-78
2023/03/04 00:42:41;;;;;;;;;;;-0.70;1.00;;;;;;4975448;28;19920;-74
2023/03/04 00:45:08;;;;;;;;;;;-0.70;1.00;;;;;;4999420;28;20289;-72
2023/03/04 00:47:34;;;;;;;;;;;-0.80;1.00;;;;;;5000329;28;19910;-75
2023/03/04 00:50:00;;;;;;;;;;;-0.80;1.00;;;;;;4994935;28;19937;-73
2023/03/04 00:52:26;;;;;;;;;;;-0.80;1.00;;;;;;4993782;28;19921;-73
2023/03/04 00:54:52;;;;;;;;;;;-0.80;1.00;;;;;;4996540;28;19913;-73
2023/03/04 00:57:18;;;;;;;;;;;-0.80;1.00;;;;;;4994870;28;19918;-73
2023/03/04 00:59:45;;;;;;;;;;;-0.80;1.00;;;;;;4978013;28;19991;-73
2023/03/04 01:02:11;;;;;;;;;;;-0.90;1.00;;;;;;4993417;28;19929;-72
2023/03/04 01:04:37;;;;;;;;;;;-1.00;1.00;;;;;;4996553;28;19913;-72
2023/03/04 01:07:03;;;;;;;;;;;-1.00;1.00;;;;;;4999188;28;20346;-73
2023/03/04 01:09:30;;;;;;;;;;;-1.00;1.00;;;;;;5000849;28;19910;-74
2023/03/04 01:11:56;;;;;;;;;;;-1.10;1.00;;;;;;4992560;28;19914;-75
2023/03/04 01:14:22;;;;;;;;;;;-1.10;1.00;;;;;;4995053;28;20260;-74
2023/03/04 01:16:48;;;;;;;;;;;-1.10;1.00;;;;;;4993520;28;19933;-74
2023/03/04 01:19:14;;;;;;;;;;;-1.20;1.00;;;;;;4998274;28;19921;-73
2023/03/04 01:21:40;;;;;;;;;;;-1.20;1.00;;;;;;4993164;28;20279;-75
2023/03/04 01:24:06;;;;;;;;;;;-1.30;1.00;;;;;;4993792;28;20371;-74
2023/03/04 01:26:32;;;;;;;;;;;-1.30;1.00;;;;;;4994434;28;20012;-74
2023/03/04 01:28:58;;;;;;;;;;;-1.30;1.00;;;;;;4990450;28;19913;-74
2023/03/04 01:31:24;;;;;;;;;;;-1.30;1.00;;;;;;4992498;28;20433;-73
2023/03/04 01:33:51;;;;;;;;;;;-1.40;1.00;;;;;;4998813;28;19914;-74
2023/03/04 01:36:17;;;;;;;;;;;-1.40;1.00;;;;;;4994025;28;19937;-74
2023/03/04 01:38:43;;;;;;;;;;;-1.40;1.00;;;;;;4993984;28;19965;-76
2023/03/04 01:41:10;;;;;;;;;;;-1.50;1.00;;;;;;4996337;28;20749;-74
2023/03/04 01:43:37;;;;;;;;;;;-1.60;1.00;;;;;;4993658;28;20275;-74
2023/03/04 01:46:03;;;;;;;;;;;-1.60;1.00;;;;;;4994216;28;19914;-74
2023/03/04 01:48:30;;;;;;;;;;;-1.60;1.00;;;;;;4990501;28;19910;-74
2023/03/04 01:50:58;;;;;;;;;;;-1.60;1.00;;;;;;4978819;28;19921;-75
2023/03/04 01:53:26;;;;;;;;;;;-1.60;1.00;;;;;;4994736;28;19922;-74
2023/03/04 01:55:53;;;;;;;;;;;-1.60;1.00;;;;;;5000006;28;19914;-74
2023/03/04 01:58:19;;;;;;;;;;;-1.70;1.00;;;;;;4994760;28;19918;-74
2023/03/04 02:00:45;;;;;;;;;;;-1.70;1.00;;;;;;4993083;28;19929;-76
2023/03/04 02:03:14;;;;;;;;;;;-1.70;1.00;;;;;;4991973;28;19921;-74
2023/03/04 02:05:44;;;;;;;;;;;-1.80;1.00;;;;;;4994015;28;20195;-74
2023/03/04 02:08:11;;;;;;;;;;;-1.70;1.00;;;;;;4996517;28;19921;-74
2023/03/04 02:10:37;;;;;;;;;;;-1.70;2.60;;;;;;4980118;28;19913;-74
2023/03/04 02:13:05;;;;;;;;;;;-1.70;4.60;;;;;;4991642;28;19920;-75
2023/03/04 02:15:31;;;;;;;;;;;-1.70;4.60;;;;;;4995215;28;19929;-75
2023/03/04 02:17:57;;;;;;;;;;;-1.70;6.80;;;;;;4992594;28;19917;-74
2023/03/04 02:20:32;;;;;;;;;;;-1.70;7.20;;;;;;4995085;28;19924;-74
2023/03/04 02:22:58;;;;;;;;;;;-1.70;6.80;;;;;;4995336;28;19914;-75
2023/03/04 02:25:27;;;;;;;;;;;-1.70;7.90;;;;;;4994306;28;20395;-74
2023/03/04 02:27:53;;;;;;;;;;;-1.80;8.60;;;;;;4986456;28;19910;-74
2023/03/04 02:30:20;;;;;;;;;;;-1.80;10.70;;;;;;4991998;28;20303;-74
2023/03/04 02:32:48;;;;;;;;;;;-1.80;9.50;;;;;;4988286;28;19918;-76
2023/03/04 02:35:16;;;;;;;;;;;-1.80;11.40;;;;;;4992694;28;20354;-74
2023/03/04 02:37:44;;;;;;;;;;;-1.90;10.30;;;;;;4993795;28;19927;-73
2023/03/04 02:40:22;;;;;;;;;;;-1.90;9.00;;;;;;4980072;28;19925;-73
2023/03/04 02:42:48;;;;;;;;;;;-2.00;12.20;;;;;;4994361;28;19921;-76
2023/03/04 02:45:29;;;;;;;;;;;-2.00;15.30;;;;;;4988376;28;19914;-74
2023/03/04 02:47:55;;;;;;;;;;;-2.10;13.50;;;;;;4980222;28;20295;-74
2023/03/04 02:50:21;;;;;;;;;;;-2.20;12.60;;;;;;4994428;28;19949;-73
2023/03/04 02:52:47;;;;;;;;;;;-2.10;20.30;;;;;;4976531;28;19914;-75
2023/03/04 02:55:13;;;;;;;;;;;-2.10;25.90;;;;;;4992967;28;19973;-74
2023/03/04 02:57:39;;;;;;;;;;;-2.10;27.50;;;;;;4992246;28;20012;-74
2023/03/04 03:00:06;;;;;;;;;;;-2.20;25.60;;;;;;4991863;28;20523;-73
2023/03/04 03:02:32;;;;;;;;;;;-2.30;24.80;;;;;;4995723;28;19930;-74
2023/03/04 03:04:58;;;;;;;;;;;-2.30;24.20;;;;;;4991670;28;19937;-73
2023/03/04 03:07:26;;;;;;;;;;;-2.40;22.40;;;;;;4992277;28;19910;-73
2023/03/04 03:09:52;;;;;;;;;;;-2.50;20.20;;;;;;4987905;28;19914;-74
2023/03/04 03:12:18;;;;;;;;;;;-2.60;19.20;;;;;;4989816;28;19910;-73
2023/03/04 03:14:44;;;;;;;;;;;-2.60;18.80;;;;;;4992810;28;19921;-74
2023/03/04 03:17:12;;;;;;;;;;;-2.60;18.60;;;;;;4990213;28;19914;-74
2023/03/04 03:19:38;;;;;;;;;;;-2.70;17.00;;;;;;4975968;28;19932;-74
2023/03/04 03:22:06;;;;;;;;;;;-2.80;17.80;;;;;;4978150;28;19914;-74
2023/03/04 03:24:32;;;;;;;;;;;-2.80;19.70;;;;;;4977580;28;19914;-74
2023/03/04 03:26:58;;;;;;;;;;;-2.80;22.60;;;;;;4991502;28;19957;-74
2023/03/04 03:29:24;;;;;;;;;;;-2.80;24.20;;;;;;4980253;28;20375;-74
2023/03/04 03:31:50;;;;;;;;;;;-2.90;26.10;;;;;;4974378;28;19937;-75
2023/03/04 03:34:18;;;;;;;;;;;-3.00;25.90;;;;;;4965857;28;19910;-75
2023/03/04 03:36:44;;;;;;;;;;;-3.00;29.40;;;;;;4991264;28;19918;-74
2023/03/04 03:39:10;;;;;;;;;;;-2.90;33.30;;;;;;4991584;28;19949;-74
2023/03/04 03:41:36;;;;;;;;;;;-3.00;32.40;;;;;;4994121;28;19972;-74
2023/03/04 03:44:02;;;;;;;;;;;-3.00;31.40;;;;;;4991611;28;20013;-74
2023/03/04 03:46:28;;;;;;;;;;;-3.00;32.40;;;;;;4992604;28;20287;-74
2023/03/04 03:48:54;;;;;;;;;;;-3.00;32.80;;;;;;4991590;28;20370;-74
2023/03/04 03:51:20;;;;;;;;;;;-3.00;35.20;;;;;;4982797;28;19918;-74
2023/03/04 03:53:46;;;;;;;;;;;-3.00;37.90;;;;;;4992182;28;19941;-74
2023/03/04 03:56:12;;;;;;;;;;;-3.00;38.50;;;;;;4991316;28;20379;-74
2023/03/04 03:58:38;;;;;;;;;;;-3.00;43.90;;;;;;4993059;28;19917;-74
2023/03/04 04:01:04;;;;;;;;;;;-2.90;50.90;;;;;;4975186;28;19964;-75
2023/03/04 04:03:30;;;;;;;;;;;-2.90;56.30;;;;;;4992423;28;19930;-74
2023/03/04 04:05:56;;;;;;;;;;;-2.90;55.20;;;;;;4991682;28;20419;-74
2023/03/04 04:08:22;;;;;;;;;;;-3.00;53.90;;;;;;4992443;28;19917;-74
2023/03/04 04:10:48;;;;;;;;;;;-3.10;51.10;;;;;;4979438;28;19961;-75
2023/03/04 04:13:14;;;;;;;;;;;-3.20;47.80;;;;;;4995267;28;19914;-74
2023/03/04 04:15:40;;;;;;;;;;;-3.20;45.20;;;;;;5006371;28;19969;-74
2023/03/04 04:18:06;;;;;;;;;;;-3.20;43.70;;;;;;4997454;28;19921;-73
2023/03/04 04:20:32;;;;;;;;;;;-3.20;43.40;;;;;;4996477;28;20466;-75
2023/03/04 04:22:58;;;;;;;;;;;-3.20;43.20;;;;;;4998127;28;20382;-74
2023/03/04 04:25:24;;;;;;;;;;;-3.30;41.70;;;;;;4982141;28;19914;-74
2023/03/04 04:27:51;;;;;;;;;;;-3.40;40.00;;;;;;4999139;28;19921;-76
2023/03/04 04:30:17;;;;;;;;;;;-3.30;39.80;;;;;;4986415;28;19925;-74
2023/03/04 04:32:43;;;;;;;;;;;-3.40;37.40;;;;;;4996854;28;19918;-74
2023/03/04 04:35:09;;;;;;;;;;;-3.40;37.10;;;;;;4994418;28;19914;-74
2023/03/04 04:37:35;;;;;;;;;;;-3.40;34.70;;;;;;4995599;28;19918;-74
2023/03/04 04:40:00;;;;;;;;;;;-3.50;31.40;;;;;;4994629;28;19951;-74
2023/03/04 04:42:26;;;;;;;;;;;-3.60;29.60;;;;;;4994945;28;20298;-74
2023/03/04 04:44:52;;;;;;;;;;;-3.60;28.30;;;;;;4996353;28;19913;-76
2023/03/04 04:47:18;;;;;;;;;;;-3.60;27.20;;;;;;4980582;28;19917;-74
2023/03/04 04:49:44;;;;;;;;;;;-3.50;27.30;;;;;;4995488;28;19917;-74
2023/03/04 04:52:10;;;;;;;;;;;-3.50;27.20;;;;;;4995746;28;19935;-74
2023/03/04 04:54:36;;;;;;;;;;;-3.40;27.00;;;;;;4995207;28;19937;-74
2023/03/04 04:57:02;;;;;;;;;;;-3.50;26.00;;;;;;4994370;28;19965;-74
2023/03/04 04:59:28;;;;;;;;;;;-3.50;24.30;;;;;;4995217;28;19925;-74
2023/03/04 05:01:54;;;;;;;;;;;-3.40;23.60;;;;;;5000962;28;20382;-74
2023/03/04 05:04:20;;;;;;;;;;;-3.40;22.30;;;;;;4994917;28;19914;-74
2023/03/04 05:06:46;;;;;;;;;;;-3.30;21.30;;;;;;4995931;28;19914;-74
2023/03/04 05:09:12;;;;;;;;;;;-3.30;20.50;;;;;;4994030;28;20001;-75
2023/03/04 05:11:38;;;;;;;;;;;-3.20;19.80;;;;;;4995005;28;19914;-74
2023/03/04 05:14:04;;;;;;;;;;;-3.10;18.20;;;;;;5000207;28;20155;-74
2023/03/04 05:16:30;;;;;;;;;;;-3.00;16.60;;;;;;4996128;28;20361;-75
2023/03/04 05:18:56;;;;;;;;;;;-3.00;13.60;;;;;;5001861;28;19924;-75
2023/03/04 05:21:22;;;;;;;;;;;-2.90;9.20;;;;;;4984612;28;19914;-75
2023/03/04 05:23:48;;;;;;;;;;;-2.80;4.60;;;;;;4994922;28;19913;-74
2023/03/04 05:26:15;;;;;;;;;;;-2.80;1.00;;;;;;5000022;28;19906;-75
2023/03/04 05:28:41;;;;;;;;;;;-2.80;1.00;;;;;;4994443;28;19914;-75
2023/03/04 05:31:07;;;;;;;;;;;-2.70;1.00;;;;;;4992560;28;19922;-75
2023/03/04 05:33:33;;;;;;;;;;;-2.70;1.00;;;;;;4994470;28;19922;-75
2023/03/04 05:36:00;;;;;;;;;;;-2.60;1.00;;;;;;4993628;28;20260;-75
2023/03/04 05:38:26;;;;;;;;;;;-2.60;1.00;;;;;;4993443;28;19933;-74
2023/03/04 05:40:57;;;;;;;;;;;-2.50;1.00;;;;;;4993661;28;20016;-76
2023/03/04 05:43:23;;;;;;;;;;;-2.50;1.00;;;;;;4993982;28;20307;-74
2023/03/04 05:45:49;;;;;;;;;;;-2.40;1.00;;;;;;4994057;28;19914;-73
2023/03/04 05:48:15;;;;;;;;;;;-2.40;1.00;;;;;;4992793;28;19921;-73
2023/03/04 05:50:41;;;;;;;;;;;-2.30;1.00;;;;;;4993386;28;20318;-73
2023/03/04 05:53:07;;;;;;;;;;;-2.30;1.00;;;;;;4992704;28;20276;-73
2023/03/04 05:55:33;;;;;;;;;;;-2.20;1.00;;;;;;4994054;28;20375;-73
2023/03/04 05:57:59;;;;;;;;;;;-2.10;1.00;;;;;;4994688;28;20293;-74
2023/03/04 06:00:25;;;;;;;;;;;-2.10;1.00;;;;;;4988007;28;19921;-75
2023/03/04 06:02:51;;;;;;;;;;;-2.10;1.00;;;;;;4994977;28;19933;-74
2023/03/04 06:05:17;;;;;;;;;;;-2.00;1.00;;;;;;4992929;28;19914;-74
2023/03/04 06:07:43;;;;;;;;;;;-2.10;1.00;;;;;;4996651;28;19921;-74
2023/03/04 06:10:11;;;;;;;;;;;-2.00;1.00;;;;;;4996661;28;19917;-74
2023/03/04 06:12:37;;;;;;;;;;;-1.90;1.00;;;;;;4995133;28;19922;-74
2023/03/04 06:15:04;;;;;;;;;;;-1.80;1.00;;;;;;4993024;28;20252;-74
2023/03/04 06:17:30;;;;;;;;;;;-1.80;1.00;;;;;;4993459;28;19914;-73
2023/03/04 06:19:56;;;;;;;;;;;-1.80;1.00;;;;;;4981068;28;19918;-76
2023/03/04 06:22:22;;;;;;;;;;;-1.70;1.00;;;;;;4993282;28;20017;-74
2023/03/04 06:24:48;;;;;;;;;;;-1.70;1.00;;;;;;4993322;28;19921;-73
2023/03/04 06:27:15;;;;;;;;;;;-1.60;1.00;;;;;;4992441;28;20338;-73
2023/03/04 06:29:41;;;;;;;;;;;-1.60;1.00;;;;;;4992110;28;19925;-73
2023/03/04 06:32:07;;;;;;;;;;;-1.50;1.00;;;;;;4987314;28;19925;-74
2023/03/04 06:34:33;;;;;;;;;;;-1.30;1.00;;;;;;4993658;28;20345;-74
2023/03/04 06:36:59;;;;;;;;;;;-1.30;1.00;;;;;;4991620;28;19921;-74
2023/03/04 06:39:25;;;;;;;;;;;-1.30;1.00;;;;;;4996957;28;19960;-79
2023/03/04 06:41:51;;;;;;;;;;;-1.20;1.00;;;;;;4991951;28;19922;-78
2023/03/04 06:44:17;;;;;;;;;;;-1.20;1.00;;;;;;4983787;28;20013;-78
2023/03/04 06:46:43;;;;;;;;;;;-1.10;1.00;;;;;;4993046;28;19914;-80
2023/03/04 06:49:09;;;;;;;;;;;-1.10;1.00;;;;;;4993054;28;19914;-78
2023/03/04 06:51:35;;;;;;;;;;;-1.00;1.00;;;;;;4998259;28;20286;-79
2023/03/04 06:54:01;;;;;;;;;;;-0.90;1.00;;;;;;4992960;28;20009;-79
2023/03/04 06:56:27;;;;;;;;;;;-0.90;1.00;;;;;;4978825;28;20287;-81
2023/03/04 06:58:53;;;;;;;;;;;-0.90;1.00;;;;;;4993236;28;19918;-79
2023/03/04 07:01:20;;;;;;;;;;;-0.80;1.00;;;;;;4993944;28;20705;-80
2023/03/04 07:03:47;;;;;;;;;;;-0.80;1.00;;;;;;4998491;28;19929;-79
2023/03/04 07:06:14;;;;;;;;;;;-0.70;1.00;;;;;;4977618;28;19914;-79
2023/03/04 07:08:40;;;;;;;;;;;-0.70;1.00;;;;;;4978842;28;20386;-80
2023/03/04 07:11:07;;;;;;;;;;;-0.60;1.00;;;;;;4995193;28;19921;-81
2023/03/04 07:13:36;;;;;;;;;;;-0.60;1.00;;;;;;4993910;28;19914;-80
2023/03/04 07:16:13;;;;;;;;;;;-0.50;1.00;;;;;;4993795;28;20283;-81
2023/03/04 07:18:39;;;;;;;;;;;-0.40;1.00;;;;;;5000460;28;20739;-80
2023/03/04 07:21:05;;;;;;;;;;;-0.40;1.00;;;;;;4977851;28;19929;-81
2023/03/04 07:23:31;;;;;;;;;;;-0.30;1.00;;;;;;4992787;28;19913;-83
2023/03/04 07:25:57;;;;;;;;;;;-0.20;1.00;;;;;;4992925;28;19914;-81
2023/03/04 07:28:23;;;;;;;;;;;-0.20;1.00;;;;;;4994846;28;19920;-81
2023/03/04 07:30:49;;;;;;;;;;;-0.10;1.00;;;;;;4995355;28;20267;-80
2023/03/04 07:33:15;;;;;;;;;;;-0.10;1.00;;;;;;4985284;28;20270;-80
2023/03/04 07:35:41;;;;;;;;;;;-0.10;1.00;;;;;;4992554;28;19918;-80
2023/03/04 07:38:07;;;;;;;;;;;0.00;1.00;;;;;;4989902;28;19932;-80
2023/03/04 07:40:33;;;;;;;;;;;0.00;1.00;;;;;;4997121;28;20016;-80
2023/03/04 07:42:59;;;;;;;;;;;0.00;1.00;;;;;;4994222;28;19914;-80
2023/03/04 07:45:27;;;;;;;;;;;0.00;1.00;;;;;;4993025;28;19914;-78
2023/03/04 07:47:53;;;;;;;;;;;0.10;1.00;;;;;;4979527;28;19921;-78
2023/03/04 07:50:20;;;;;;;;;;;0.10;1.00;;;;;;4978522;28;19914;-81
2023/03/04 07:52:47;;;;;;;;;;;0.10;1.00;;;;;;4981261;28;19913;-78
2023/03/04 07:55:17;;;;;;;;;;;0.20;1.00;;;;;;4982563;28;19914;-77
2023/03/04 07:57:44;;;;;;;;;;;0.30;1.00;;;;;;4982858;28;20359;-77
2023/03/04 08:00:11;;;;;;;;;;;0.30;1.00;;;;;;4985577;28;19929;-77
2023/03/04 08:02:40;;;;;;;;;;;0.40;1.00;;;;;;4974764;28;19949;-79
2023/03/04 08:05:07;;;;;;;;;;;0.40;1.00;;;;;;4983445;28;19913;-78
2023/03/04 08:07:34;;;;;;;;;;;0.50;1.00;;;;;;4976473;28;20401;-78
2023/03/04 08:10:04;;;;;;;;;;;0.50;1.00;;;;;;4985557;28;19982;-80
2023/03/04 08:12:30;;;;;;;;;;;0.50;1.00;;;;;;4977485;28;19929;-77
2023/03/04 08:14:56;;;;;;;;;;;0.60;1.00;;;;;;4980646;28;19918;-78
2023/03/04 08:17:22;;;;;;;;;;;0.60;1.00;;;;;;4985192;28;19916;-78
2023/03/04 08:19:48;;;;;;;;;;;0.70;1.00;;;;;;4998050;28;19929;-82
2023/03/04 08:22:15;;;;;;;;;;;0.70;1.00;;;;;;4997344;28;19922;-79
2023/03/04 08:24:41;;;;;;;;;;;0.70;1.00;;;;;;4997796;28;19916;-79
2023/03/04 08:27:07;;;;;;;;;;;0.80;1.00;;;;;;4995910;28;19914;-79
2023/03/04 08:29:33;;;;;;;;;;;0.90;1.00;;;;;;4983037;28;19914;-79
2023/03/04 08:31:59;;;;;;;;;;;0.90;1.00;;;;;;4996929;28;19925;-84
2023/03/04 08:34:32;;;;;;;;;;;1.00;1.00;;;;;;4995082;28;19937;-79
2023/03/04 08:36:58;;;;;;;;;;;1.10;1.00;;;;;;4995348;28;19914;-80
2023/03/04 08:39:26;;;;;;;;;;;1.20;1.00;;;;;;4984498;28;19917;-80
2023/03/04 08:41:53;;;;;;;;;;;1.20;1.00;;;;;;4972218;28;19921;-80
2023/03/04 08:44:19;;;;;;;;;;;1.30;1.00;;;;;;4994875;28;20460;-80
2023/03/04 08:46:47;;;;;;;;;;;1.30;1.00;;;;;;4996307;28;19914;-79
2023/03/04 08:49:13;;;;;;;;;;;1.40;1.00;;;;;;4977971;28;19937;-80
2023/03/04 08:51:39;;;;;;;;;;;1.50;1.00;;;;;;5004338;28;19913;-80
2023/03/04 08:54:05;;;;;;;;;;;1.50;1.00;;;;;;4987601;28;19940;-80
2023/03/04 08:56:32;;;;;;;;;;;1.50;1.00;;;;;;4979492;28;19914;-79
2023/03/04 08:58:58;;;;;;;;;;;1.60;1.00;;;;;;4988529;28;20290;-80
2023/03/04 09:01:24;;;;;;;;;;;1.80;1.00;;;;;;5011514;28;20004;-76
2023/03/04 09:03:50;;;;;;;;;;;1.80;1.00;;;;;;4998053;28;19926;-80
2023/03/04 09:06:16;;;;;;;;;;;1.90;1.00;;;;;;4995375;28;20363;-80
2023/03/04 09:08:43;;;;;;;;;;;1.80;1.00;;;;;;4995898;28;19909;-78
2023/03/04 09:11:09;;;;;;;;;;;1.80;1.00;;;;;;4995268;28;19925;-80
2023/03/04 09:13:35;;;;;;;;;;;1.80;1.00;;;;;;4986532;28;19925;-79
2023/03/04 09:16:02;;;;;;;;;;;1.90;1.00;;;;;;4994695;28;19913;-78
2023/03/04 09:18:28;;;;;;;;;;;2.00;1.00;;;;;;4985781;28;19914;-78
2023/03/04 09:20:54;;;;;;;;;;;2.10;1.00;;;;;;5011165;28;19928;-78
2023/03/04 09:23:20;;;;;;;;;;;2.00;1.00;;;;;;5000590;28;19913;-80
2023/03/04 09:25:46;;;;;;;;;;;2.00;1.00;;;;;;5008879;28;20402;-78
2023/03/04 09:28:13;;;;;;;;;;;2.00;1.00;;;;;;4995477;28;19910;-78
2023/03/04 09:30:39;;;;;;;;;;;2.10;1.00;;;;;;4986734;28;19913;-81
2023/03/04 09:33:05;;;;;;;;;;;2.20;1.00;;;;;;5010177;28;20005;-81
2023/03/04 09:35:31;;;;;;;;;;;2.20;1.00;;;;;;4981195;28;19921;-78
2023/03/04 09:37:57;;;;;;;;;;;2.10;1.00;;;;;;4975492;28;19916;-78
2023/03/04 09:40:26;;;;;;;;;;;2.10;1.00;;;;;;4994306;28;19925;-78
2023/03/04 09:42:54;;;;;;;;;;;2.20;1.00;;;;;;4998442;28;19914;-78
2023/03/04 09:45:22;;;;;;;;;;;2.30;1.00;;;;;;5002121;28;19917;-81
2023/03/04 09:47:49;;;;;;;;;;;2.30;1.00;;;;;;4999996;28;19914;-79
2023/03/04 09:50:16;;;;;;;;;;;2.30;1.00;;;;;;4997780;28;19924;-79
2023/03/04 09:53:01;;;;;;;;;;;2.30;1.00;;;;;;4994684;28;19922;-79
2023/03/04 09:55:32;;;;;;;;;;;2.30;1.00;;;;;;4996920;28;20410;-80
2023/03/04 09:58:12;;;;;;;;;;;2.30;1.00;;;;;;5008274;28;19913;-80
2023/03/04 10:00:39;;;;;;;;;;;2.40;1.00;;;;;;5004073;28;20377;-80
2023/03/04 10:03:05;;;;;;;;;;;2.50;1.00;;;;;;4997200;28;19984;-82
2023/03/04 10:05:33;;;;;;;;;;;2.70;1.00;;;;;;4993886;28;20012;-79
2023/03/04 10:08:13;;;;;;;;;;;2.80;1.00;;;;;;4983918;28;19921;-81
2023/03/04 10:10:42;;;;;;;;;;;2.80;1.00;;;;;;4978989;28;20394;-80
2023/03/04 10:13:17;;;;;;;;;;;2.80;1.00;;;;;;4996563;28;19917;-81
2023/03/04 10:15:45;;;;;;;;;;;3.00;1.00;;;;;;5003990;28;19914;-81
2023/03/04 10:18:21;;;;;;;;;;;3.00;1.00;;;;;;5011146;28;19916;-79
2023/03/04 10:20:57;;;;;;;;;;;3.10;1.00;;;;;;5002129;28;20382;-79
2023/03/04 10:23:26;;;;;;;;;;;3.40;1.00;;;;;;5007720;28;20381;-79
2023/03/04 10:25:53;;;;;;;;;;;3.50;99.90;;;;;;4995928;28;19914;-79
2023/03/04 10:28:21;;;;;;;;;;;3.70;99.90;;;;;;5001298;28;20382;-79
2023/03/04 10:30:47;;;;;;;;;;;3.60;99.90;;;;;;4975678;28;19947;-80
2023/03/04 10:33:15;;;;;;;;;;;3.70;99.90;;;;;;4999527;28;19914;-80
2023/03/04 10:35:43;;;;;;;;;;;3.80;99.90;;;;;;4998155;28;19914;-80
2023/03/04 10:38:11;;;;;;;;;;;3.90;99.90;;;;;;4997063;28;19921;-81
2023/03/04 10:40:38;;;;;;;;;;;4.10;99.90;;;;;;4997860;28;19924;-80
2023/03/04 10:43:07;;;;;;;;;;;4.00;99.90;;;;;;4988388;28;19927;-83
2023/03/04 10:45:37;;;;;;;;;;;3.90;99.90;;;;;;5013173;28;19914;-79
2023/03/04 10:48:03;;;;;;;;;;;3.80;99.90;;;;;;5000901;28;19914;-79
2023/03/04 10:50:29;;;;;;;;;;;3.90;99.90;;;;;;4999485;28;19921;-80
2023/03/04 10:52:55;;;;;;;;;;;3.90;99.90;;;;;;4993850;28;19925;-80
2023/03/04 10:55:28;;;;;;;;;;;3.80;99.90;;;;;;5004212;28;20283;-79
2023/03/04 10:58:00;;;;;;;;;;;3.90;99.90;;;;;;4993622;28;19916;-79
2023/03/04 11:00:33;;;;;;;;;;;4.00;99.90;;;;;;5004141;28;19928;-79
2023/03/04 11:03:21;;;;;;;;;;;4.10;99.90;;;;;;5000254;28;19926;-78
2023/03/04 11:05:47;;;;;;;;;;;4.10;99.90;;;;;;4999016;28;19913;-79
2023/03/04 11:08:20;;;;;;;;;;;4.20;99.90;;;;;;4992931;28;19937;-81
2023/03/04 11:10:48;;;;;;;;;;;4.10;99.90;;;;;;4993001;28;19914;-79
2023/03/04 11:13:22;;;;;;;;;;;4.20;99.90;;;;;;4992996;28;19925;-79
2023/03/04 11:16:02;;;;;;;;;;;4.30;99.90;;;;;;4994161;28;19924;-80
2023/03/04 11:18:40;;;;;;;;;;;4.30;99.90;;;;;;5010306;28;19914;-80
2023/03/04 11:21:06;;;;;;;;;;;4.20;99.90;;;;;;5000643;28;20026;-84
2023/03/04 11:23:32;;;;;;;;;;;4.10;99.90;;;;;;5005788;28;19917;-81
2023/03/04 11:26:02;;;;;;;;;;;4.10;99.90;;;;;;5005815;28;19914;-80
2023/03/04 11:28:37;;;;;;;;;;;4.30;99.90;;;;;;5002590;28;19921;-81
2023/03/04 11:31:07;;;;;;;;;;;4.50;99.90;;;;;;4997491;28;20335;-82
2023/03/04 11:33:42;;;;;;;;;;;4.70;99.90;;;;;;5003674;28;19918;-82
2023/03/04 11:36:11;;;;;;;;;;;4.90;99.90;;;;;;5005247;28;19918;-86
2023/03/04 11:38:39;;;;;;;;;;;5.00;99.90;;;;;;5002891;28;19936;-82
2023/03/04 11:41:11;;;;;;;;;;;4.90;99.90;;;;;;5008397;28;19918;-85
2023/03/04 11:43:40;;;;;;;;;;;4.90;99.90;;;;;;5014281;28;19925;-83
2023/03/04 11:46:15;;;;;;;;;;;4.90;99.90;;;;;;4980654;28;19914;-83
2023/03/04 11:48:55;;;;;;;;;;;4.80;99.90;;;;;;4997741;28;19914;-80
2023/03/04 11:51:30;;;;;;;;;;;4.90;99.90;;;;;;4995021;28;19918;-84
2023/03/04 11:54:02;;;;;;;;;;;5.10;99.90;;;;;;5008795;28;19914;-83
2023/03/04 11:56:34;;;;;;;;;;;5.30;99.90;;;;;;4996549;28;19910;-83
2023/03/04 11:59:00;;;;;;;;;;;5.40;99.90;;;;;;5002928;28;19914;-84
2023/03/04 12:01:32;;;;;;;;;;;5.60;99.90;;;;;;4982736;28;19917;-84
2023/03/04 12:04:01;;;;;;;;;;;5.70;99.90;;;;;;5010510;28;20398;-84
2023/03/04 12:06:33;;;;;;;;;;;5.80;99.90;;;;;;5008007;28;19925;-83
2023/03/04 12:09:08;;;;;;;;;;;5.70;99.90;;;;;;5016508;28;19924;-81
2023/03/04 12:11:39;;;;;;;;;;;5.60;99.90;;;;;;5019588;28;19917;-88
2023/03/04 12:14:08;;;;;;;;;;;5.20;99.90;;;;;;5022098;28;19918;-81
2023/03/04 12:16:47;;;;;;;;;;;5.00;99.90;;;;;;5004075;28;19909;-85
2023/03/04 12:19:30;;;;;;;;;;;5.10;99.90;;;;;;5009170;28;19920;-82
2023/03/04 12:22:05;;;;;;;;;;;5.00;99.90;;;;;;5022618;28;19906;-80
2023/03/04 12:24:48;;;;;;;;;;;5.10;99.90;;;;;;4996959;28;19941;-78
2023/03/04 12:27:20;;;;;;;;;;;5.10;99.90;;;;;;4997160;28;19914;-83
2023/03/04 12:30:04;;;;;;;;;;;5.20;99.90;;;;;;4999622;28;19902;-80
2023/03/04 12:32:30;;;;;;;;;;;5.20;99.90;;;;;;5025875;28;19944;-79
2023/03/04 12:34:59;;;;;;;;;;;5.10;99.90;;;;;;5006711;28;19914;-78
2023/03/04 12:37:34;;;;;;;;;;;4.80;99.90;;;;;;5015963;28;19914;-80
2023/03/04 12:40:24;;;;;;;;;;;4.90;99.90;;;;;;5013852;28;19917;-79
2023/03/04 12:42:53;;;;;;;;;;;4.80;99.90;;;;;;5010782;28;19925;-78
2023/03/04 12:45:24;;;;;;;;;;;4.90;99.90;;;;;;4997932;28;20101;-79
2023/03/04 12:48:13;;;;;;;;;;;4.90;99.90;;;;;;5008562;28;19921;-79
2023/03/04 12:50:45;;;;;;;;;;;4.90;99.90;;;;;;4980699;28;19921;-78
2023/03/04 12:53:19;;;;;;;;;;;4.80;99.90;;;;;;4994461;28;20286;-79
2023/03/04 12:55:45;;;;;;;;;;;4.70;99.90;;;;;;4977288;28;19918;-79
2023/03/04 12:58:31;;;;;;;;;;;4.60;99.90;;;;;;4988751;28;19921;-80
2023/03/04 13:01:00;;;;;;;;;;;4.70;99.90;;;;;;5003363;28;19945;-79
2023/03/04 13:03:39;;;;;;;;;;;4.80;99.90;;;;;;4984510;28;19928;-81
2023/03/04 13:06:09;;;;;;;;;;;4.90;99.90;;;;;;5002160;28;19918;-79
2023/03/04 13:08:38;;;;;;;;;;;4.90;99.90;;;;;;4989826;28;20382;-79
2023/03/04 13:11:22;;;;;;;;;;;4.90;99.90;;;;;;4998158;28;19917;-79
2023/03/04 13:14:02;;;;;;;;;;;4.80;99.90;;;;;;4977605;28;19921;-79
2023/03/04 13:16:28;;;;;;;;;;;4.80;99.90;;;;;;5000210;28;19913;-79
2023/03/04 13:18:54;;;;;;;;;;;4.80;99.90;;;;;;4989853;28;19916;-80
2023/03/04 13:21:25;;;;;;;;;;;4.90;99.90;;;;;;4988871;28;19929;-80
2023/03/04 13:23:51;;;;;;;;;;;4.80;99.90;;;;;;4994948;28;19914;-79
2023/03/04 13:26:22;;;;;;;;;;;4.70;99.90;;;;;;4993473;28;19921;-80
2023/03/04 13:28:52;;;;;;;;;;;4.80;99.90;;;;;;5001035;28;19914;-81
2023/03/04 13:31:20;;;;;;;;;;;4.80;99.90;;;;;;4995118;28;19940;-79
2023/03/04 13:33:48;;;;;;;;;;;4.90;99.90;;;;;;4995260;28;19921;-79
2023/03/04 13:36:29;;;;;;;;;;;4.90;99.90;;;;;;4980580;28;19924;-80
2023/03/04 13:38:56;;;;;;;;;;;4.80;99.90;;;;;;4998427;28;19921;-79
2023/03/04 13:41:29;;;;;;;;;;;4.80;99.90;;;;;;4997927;28;19922;-79
2023/03/04 13:44:00;;;;;;;;;;;4.80;99.90;;;;;;4982674;28;19914;-79
2023/03/04 13:46:26;;;;;;;;;;;4.80;99.90;;;;;;4988511;28;19921;-78
2023/03/04 13:48:55;;;;;;;;;;;4.90;99.90;;;;;;4982277;28;19921;-79
2023/03/04 13:51:24;;;;;;;;;;;5.00;99.90;;;;;;4981631;28;19917;-79
2023/03/04 13:53:53;;;;;;;;;;;5.10;99.90;;;;;;4984817;28;20357;-79
2023/03/04 13:56:21;;;;;;;;;;;5.00;99.90;;;;;;4969504;28;20377;-80
2023/03/04 13:59:00;;;;;;;;;;;4.90;99.90;;;;;;4992332;28;20355;-80
2023/03/04 14:01:29;;;;;;;;;;;5.00;99.90;;;;;;4995703;28;19926;-80
2023/03/04 14:03:55;;;;;;;;;;;4.90;99.90;;;;;;5000880;28;19925;-79
2023/03/04 14:06:25;;;;;;;;;;;5.00;99.90;;;;;;4994106;28;19924;-79
2023/03/04 14:08:52;;;;;;;;;;;5.10;99.90;;;;;;4979773;28;19913;-79
2023/03/04 14:11:21;;;;;;;;;;;5.00;99.90;;;;;;4982028;28;19921;-81
2023/03/04 14:13:47;;;;;;;;;;;5.00;99.90;;;;;;4981504;28;19921;-80
2023/03/04 14:16:18;;;;;;;;;;;5.00;99.90;;;;;;4964623;28;20370;-80
2023/03/04 14:18:45;;;;;;;;;;;5.10;99.90;;;;;;4985857;28;20301;-79
2023/03/04 14:21:13;;;;;;;;;;;5.20;99.90;;;;;;5003315;28;19922;-79
2023/03/04 14:23:39;;;;;;;;;;;5.20;99.90;;;;;;4977935;28;20390;-79
2023/03/04 14:26:06;;;;;;;;;;;5.30;99.90;;;;;;4970028;28;19921;-79
2023/03/04 14:28:32;;;;;;;;;;;5.20;99.90;;;;;;4990389;28;19928;-80
2023/03/04 14:30:58;;;;;;;;;;;5.20;99.90;;;;;;4979584;28;19941;-80
2023/03/04 14:33:25;;;;;;;;;;;5.20;99.90;;;;;;4981702;28;19924;-79
2023/03/04 14:35:54;;;;;;;;;;;5.20;99.90;;;;;;4982474;28;20256;-79